Time;durP1;ratioP1;P1;durP2;ratioP2;P2;SDS_P1;SDS_P2;PMS_P1;PMS_P2;Temp;Humidity;BMP_temperature;BMP_pressure;BME280_temperature;BME280_humidity;BME280_pressure;Samples;Min_cycle;Max_cycle;Signal;HPM_P1;HPM_P2
2022/01/03 00:03:02;;;;;;;9.57;8.13;;;5.90;99.90;;;;;;6295504;28;21015;-61
2022/01/03 00:06:05;;;;;;;12.90;9.33;;;5.90;99.90;;;;;;6289875;28;20465;-62
2022/01/03 00:09:09;;;;;;;16.40;9.70;;;5.80;99.90;;;;;;6289531;28;20476;-63
2022/01/03 00:12:13;;;;;;;13.40;12.00;;;5.80;99.90;;;;;;6288948;28;20477;-63
2022/01/03 00:15:18;;;;;;;15.90;11.00;;;5.80;99.90;;;;;;6289116;28;20928;-63
2022/01/03 00:18:21;;;;;;;13.37;9.67;;;5.80;99.90;;;;;;6288275;28;20504;-62
2022/01/03 00:21:29;;;;;;;11.40;9.37;;;5.80;99.90;;;;;;6277096;28;20539;-62
2022/01/03 00:24:33;;;;;;;16.83;11.47;;;5.80;99.90;;;;;;6285512;28;20478;-62
2022/01/03 00:27:44;;;;;;;13.67;10.10;;;5.80;99.90;;;;;;6292659;28;20476;-62
2022/01/03 00:30:50;;;;;;;13.87;10.10;;;5.80;99.90;;;;;;6294018;28;20481;-62
2022/01/03 00:33:57;;;;;;;13.87;10.80;;;5.80;99.90;;;;;;6285874;28;20482;-62
2022/01/03 00:37:00;;;;;;;11.00;9.87;;;5.80;99.90;;;;;;6285639;28;20879;-62
2022/01/03 00:40:05;;;;;;;15.67;12.43;;;5.80;99.90;;;;;;6291177;28;20477;-62
2022/01/03 00:43:09;;;;;;;17.70;13.10;;;5.70;99.90;;;;;;6278881;28;20448;-62
2022/01/03 00:46:12;;;;;;;16.00;12.13;;;5.70;99.90;;;;;;6276895;28;20439;-61
2022/01/03 00:49:16;;;;;;;15.90;13.77;;;5.70;99.90;;;;;;6276670;28;20442;-61
2022/01/03 00:52:19;;;;;;;13.83;12.60;;;5.70;99.90;;;;;;6289895;28;20508;-63
2022/01/03 00:55:22;;;;;;;12.77;11.50;;;5.70;99.90;;;;;;6301487;28;20464;-64
2022/01/03 00:58:31;;;;;;;10.80;9.47;;;5.60;99.90;;;;;;6300849;28;20954;-64
2022/01/03 01:01:37;;;;;;;10.90;8.50;;;5.60;99.90;;;;;;6302096;28;20465;-64
2022/01/03 01:04:45;;;;;;;8.70;7.90;;;5.60;99.90;;;;;;6300549;28;20469;-63
2022/01/03 01:07:49;;;;;;;8.80;7.93;;;5.60;99.90;;;;;;6301425;28;20472;-63
2022/01/03 01:10:56;;;;;;;13.37;8.50;;;5.50;99.90;;;;;;6300840;28;20802;-64
2022/01/03 01:14:01;;;;;;;9.20;7.40;;;5.50;99.90;;;;;;6300729;28;20474;-63
2022/01/03 01:17:05;;;;;;;6.53;5.80;;;5.50;99.90;;;;;;6300873;28;20476;-63
2022/01/03 01:20:10;;;;;;;11.43;7.10;;;5.50;99.90;;;;;;6301243;28;20465;-64
2022/01/03 01:23:14;;;;;;;6.40;5.80;;;5.40;99.90;;;;;;6291533;28;20469;-63
2022/01/03 01:29:42;;;;;;;7.53;6.47;;;5.40;99.90;;;;;;6300719;28;20476;-64
2022/01/03 01:32:51;;;;;;;7.50;6.47;;;5.40;99.90;;;;;;6300853;28;20477;-64
2022/01/03 01:36:02;;;;;;;8.47;7.43;;;5.30;99.90;;;;;;6300927;28;20497;-64
2022/01/03 01:39:08;;;;;;;9.33;6.30;;;5.30;99.90;;;;;;6300640;28;20472;-65
2022/01/03 01:42:16;;;;;;;8.00;6.30;;;5.30;99.90;;;;;;6299854;28;20492;-63
2022/01/03 01:45:25;;;;;;;7.07;6.43;;;5.30;99.90;;;;;;6300182;28;20481;-65
2022/01/03 01:48:31;;;;;;;7.00;5.70;;;5.30;99.90;;;;;;6300432;28;20470;-64
2022/01/03 01:51:35;;;;;;;5.73;5.23;;;5.30;99.90;;;;;;6300567;28;20465;-64
2022/01/03 01:54:39;;;;;;;6.67;5.60;;;5.30;99.90;;;;;;6299817;28;20871;-64
2022/01/03 01:57:54;;;;;;;5.80;4.73;;;5.30;99.90;;;;;;6300358;28;20472;-63
2022/01/03 02:01:01;;;;;;;7.20;4.90;;;5.30;99.90;;;;;;6299665;28;20481;-64
2022/01/03 02:04:15;;;;;;;4.50;4.10;;;5.30;99.90;;;;;;6299844;28;20473;-63
2022/01/03 02:07:45;;;;;;;5.27;4.57;;;5.30;99.90;;;;;;6299699;28;20897;-64
2022/01/03 02:10:56;;;;;;;6.27;4.27;;;5.20;99.90;;;;;;6299953;28;20464;-65
2022/01/03 02:14:00;;;;;;;6.10;5.17;;;5.20;99.90;;;;;;6299753;28;20477;-63
2022/01/03 02:17:05;;;;;;;6.37;5.73;;;5.10;99.90;;;;;;6299719;28;20462;-64
2022/01/03 02:20:11;;;;;;;6.47;5.87;;;5.10;99.90;;;;;;6299774;28;20476;-64
2022/01/03 02:23:14;;;;;;;5.73;4.77;;;5.20;99.90;;;;;;6299901;28;20563;-63
2022/01/03 02:26:17;;;;;;;5.83;5.40;;;5.20;99.90;;;;;;6295040;28;20469;-63
2022/01/03 02:29:21;;;;;;;5.63;5.13;;;5.20;99.90;;;;;;6300116;28;20480;-64
2022/01/03 02:32:24;;;;;;;9.37;5.80;;;5.20;99.90;;;;;;6299696;28;20469;-64
2022/01/03 02:35:29;;;;;;;5.20;4.70;;;5.30;99.90;;;;;;6299583;28;20976;-63
2022/01/03 02:38:32;;;;;;;6.50;5.90;;;5.20;99.90;;;;;;6299556;28;20476;-64
2022/01/03 02:41:35;;;;;;;6.10;5.50;;;5.30;99.90;;;;;;6299954;28;20564;-64
2022/01/03 02:44:38;;;;;;;6.37;5.77;;;5.30;99.90;;;;;;6299214;28;20822;-64
2022/01/03 02:48:37;;;;;;;7.00;5.70;;;5.20;99.90;;;;;;6301746;28;20580;-66
2022/01/03 02:51:43;;;;;;;6.57;5.43;;;5.30;99.90;;;;;;6301789;28;20469;-61
2022/01/03 02:54:46;;;;;;;7.30;5.40;;;5.40;99.90;;;;;;6294787;28;20469;-62
2022/01/03 02:57:51;;;;;;;9.73;7.37;;;5.40;99.90;;;;;;6293576;28;20508;-61
2022/01/03 03:00:54;;;;;;;8.30;5.23;;;5.40;99.90;;;;;;6268875;28;20543;-61
2022/01/03 03:03:59;;;;;;;7.67;6.60;;;5.40;99.90;;;;;;6269403;28;20466;-61
2022/01/03 03:07:17;;;;;;;9.07;8.10;;;5.30;99.90;;;;;;6268947;28;20497;-61
2022/01/03 03:10:23;;;;;;;7.23;6.13;;;5.20;99.90;;;;;;6278078;28;20473;-61
2022/01/03 03:13:26;;;;;;;8.07;6.67;;;5.30;99.90;;;;;;6295216;28;20481;-61
2022/01/03 03:16:29;;;;;;;5.90;5.13;;;5.30;99.90;;;;;;6295486;28;20473;-61
2022/01/03 03:19:50;;;;;;;5.33;4.80;;;5.40;99.90;;;;;;6295913;28;20461;-61
2022/01/03 03:22:54;;;;;;;6.53;5.30;;;5.30;99.90;;;;;;6295361;28;20464;-61
2022/01/03 03:25:57;;;;;;;7.57;5.67;;;5.40;99.90;;;;;;6296029;28;20477;-61
2022/01/03 03:29:00;;;;;;;10.43;6.40;;;5.30;99.90;;;;;;6295426;28;20465;-61
2022/01/03 03:32:03;;;;;;;5.80;5.20;;;5.30;99.90;;;;;;6295345;28;20464;-61
2022/01/03 03:35:09;;;;;;;7.87;5.33;;;5.40;99.90;;;;;;6296766;28;20481;-61
2022/01/03 03:38:13;;;;;;;5.83;4.53;;;5.30;99.90;;;;;;6298117;28;20964;-61
2022/01/03 03:41:16;;;;;;;7.37;5.13;;;5.30;99.90;;;;;;6298464;28;20469;-60
2022/01/03 03:44:19;;;;;;;5.47;4.93;;;5.40;99.90;;;;;;6295532;28;20473;-60
2022/01/03 03:47:22;;;;;;;6.70;5.40;;;5.40;99.90;;;;;;6294506;28;20569;-60
2022/01/03 03:50:27;;;;;;;5.60;4.70;;;5.50;99.90;;;;;;6294566;28;20554;-60
2022/01/03 03:53:30;;;;;;;6.47;5.00;;;5.50;99.90;;;;;;6288357;28;20474;-61
2022/01/03 03:56:34;;;;;;;6.00;5.40;;;5.50;99.90;;;;;;6270742;28;20481;-61
2022/01/03 03:59:37;;;;;;;5.77;5.37;;;5.60;99.90;;;;;;6255345;28;20471;-61
2022/01/03 04:02:40;;;;;;;8.33;6.60;;;5.60;99.90;;;;;;6253286;28;20489;-61
2022/01/03 04:05:45;;;;;;;6.53;5.67;;;5.50;99.90;;;;;;6253368;28;20948;-61
2022/01/03 04:08:48;;;;;;;6.83;6.07;;;5.50;99.90;;;;;;6253308;28;20857;-62
2022/01/03 04:11:52;;;;;;;6.07;5.57;;;5.50;99.90;;;;;;6274944;28;20798;-60
2022/01/03 04:14:55;;;;;;;6.27;5.67;;;5.50;99.90;;;;;;6277807;28;20473;-60
2022/01/03 04:17:58;;;;;;;5.43;4.93;;;5.60;99.90;;;;;;6278188;28;20470;-60
2022/01/03 04:21:02;;;;;;;6.00;5.40;;;5.70;99.90;;;;;;6278056;28;20466;-61
2022/01/03 04:24:07;;;;;;;6.10;5.50;;;5.70;99.90;;;;;;6278009;28;20474;-60
2022/01/03 04:27:10;;;;;;;6.23;5.43;;;5.80;99.90;;;;;;6277463;28;20481;-61
2022/01/03 04:30:13;;;;;;;6.13;5.40;;;5.70;99.90;;;;;;6277884;28;20478;-60
2022/01/03 04:33:16;;;;;;;9.70;7.50;;;5.80;99.90;;;;;;6277887;28;20470;-60
2022/01/03 04:36:21;;;;;;;5.50;5.00;;;5.80;99.90;;;;;;6277358;28;20470;-60
2022/01/03 04:39:24;;;;;;;4.40;4.00;;;5.80;99.90;;;;;;6277531;28;20477;-60
2022/01/03 04:42:27;;;;;;;3.97;3.63;;;5.70;99.90;;;;;;6277492;28;20543;-60
2022/01/03 04:45:30;;;;;;;4.30;3.20;;;5.70;99.90;;;;;;6277336;28;21019;-60
2022/01/03 04:48:34;;;;;;;3.90;3.60;;;5.70;99.90;;;;;;6277234;28;21007;-60
2022/01/03 04:51:39;;;;;;;5.33;3.53;;;5.80;99.90;;;;;;6278201;28;20765;-60
2022/01/03 04:54:42;;;;;;;4.37;3.20;;;5.80;99.90;;;;;;6277722;28;20466;-60
2022/01/03 04:57:45;;;;;;;3.90;3.23;;;5.80;99.90;;;;;;6277591;28;20474;-60
2022/01/03 05:00:49;;;;;;;4.30;3.13;;;5.80;99.90;;;;;;6276974;28;20842;-60
2022/01/03 05:03:53;;;;;;;4.73;4.33;;;5.80;99.90;;;;;;6264871;28;20922;-60
2022/01/03 05:06:58;;;;;;;5.50;5.00;;;5.70;99.90;;;;;;6252049;28;20483;-60
2022/01/03 05:10:01;;;;;;;4.77;4.33;;;5.70;99.90;;;;;;6253610;28;20482;-60
2022/01/03 05:13:04;;;;;;;3.77;3.47;;;5.70;99.90;;;;;;6251896;28;20482;-61
2022/01/03 05:16:07;;;;;;;4.50;3.50;;;5.60;99.90;;;;;;6251912;28;20467;-60
2022/01/03 05:19:11;;;;;;;3.50;2.93;;;5.60;99.90;;;;;;6251842;28;20474;-60
2022/01/03 05:22:15;;;;;;;4.10;3.67;;;5.60;99.90;;;;;;6251395;28;20471;-60
2022/01/03 05:25:18;;;;;;;4.67;3.73;;;5.60;99.90;;;;;;6251844;28;20479;-60
2022/01/03 05:28:21;;;;;;;3.63;3.10;;;5.60;99.90;;;;;;6251799;28;20482;-60
2022/01/03 05:31:24;;;;;;;3.83;3.23;;;5.70;99.90;;;;;;6251122;28;20749;-60
2022/01/03 05:34:28;;;;;;;3.83;3.53;;;5.70;99.90;;;;;;6251633;28;20612;-60
2022/01/03 05:37:33;;;;;;;4.10;3.77;;;5.80;99.90;;;;;;6250718;28;20462;-60
2022/01/03 05:40:36;;;;;;;6.07;3.87;;;5.80;99.90;;;;;;6250942;28;20451;-60
2022/01/03 05:43:39;;;;;;;4.37;3.73;;;5.90;99.90;;;;;;6251153;28;20467;-60
2022/01/03 05:46:43;;;;;;;3.63;3.30;;;5.90;99.90;;;;;;6250770;28;20478;-60
2022/01/03 05:49:46;;;;;;;4.07;3.20;;;5.90;99.90;;;;;;6250897;28;20563;-60
2022/01/03 05:52:50;;;;;;;5.23;4.77;;;5.80;99.90;;;;;;6251190;28;20443;-60
2022/01/03 05:55:53;;;;;;;4.67;4.27;;;5.90;99.90;;;;;;6250384;28;20478;-60
2022/01/03 05:58:56;;;;;;;8.60;7.37;;;5.90;99.90;;;;;;6250626;28;20533;-60
2022/01/03 06:01:59;;;;;;;9.03;7.47;;;5.80;99.90;;;;;;6250412;28;20973;-60
2022/01/03 06:05:05;;;;;;;10.10;8.40;;;5.70;99.90;;;;;;6250825;28;20906;-60
2022/01/03 06:08:10;;;;;;;10.43;8.43;;;5.60;99.90;;;;;;6250884;28;20475;-60
2022/01/03 06:11:13;;;;;;;11.40;8.27;;;5.40;99.90;;;;;;6266910;28;20950;-60
2022/01/03 06:14:17;;;;;;;9.83;8.67;;;5.40;99.90;;;;;;6274949;28;20945;-60
2022/01/03 06:17:20;;;;;;;12.53;9.57;;;5.00;99.90;;;;;;6275161;28;20470;-60
2022/01/03 06:20:24;;;;;;;10.60;8.90;;;5.00;99.90;;;;;;6272910;28;20466;-61
2022/01/03 06:23:28;;;;;;;12.70;8.83;;;5.10;99.90;;;;;;6250236;28;20493;-61
2022/01/03 06:26:31;;;;;;;10.83;8.80;;;5.10;99.90;;;;;;6249575;28;20463;-61
2022/01/03 06:29:35;;;;;;;12.80;9.57;;;4.90;99.90;;;;;;6250240;28;20466;-61
2022/01/03 06:32:38;;;;;;;15.73;11.20;;;4.60;99.90;;;;;;6250669;28;20475;-61
2022/01/03 06:35:41;;;;;;;13.70;10.43;;;4.50;99.90;;;;;;6249663;28;20533;-61
2022/01/03 06:38:45;;;;;;;14.27;11.43;;;4.60;99.90;;;;;;6250024;28;20478;-60
2022/01/03 06:41:49;;;;;;;12.53;9.90;;;4.60;99.90;;;;;;6250347;28;20474;-60
2022/01/03 06:44:52;;;;;;;12.47;10.53;;;4.50;99.90;;;;;;6249544;28;20959;-61
2022/01/03 06:47:55;;;;;;;13.20;10.13;;;4.50;99.90;;;;;;6249352;28;20479;-61
2022/01/03 06:50:58;;;;;;;11.20;9.47;;;4.60;99.90;;;;;;6249604;28;20993;-61
2022/01/03 06:54:05;;;;;;;14.03;9.50;;;4.70;99.90;;;;;;6249854;28;20951;-61
2022/01/03 06:57:09;;;;;;;10.83;7.93;;;4.80;99.90;;;;;;6249988;28;20462;-60
2022/01/03 07:00:13;;;;;;;11.43;9.20;;;4.80;99.90;;;;;;6250323;28;20483;-60
2022/01/03 07:03:16;;;;;;;11.10;9.50;;;4.90;99.90;;;;;;6249355;28;20482;-61
2022/01/03 07:06:19;;;;;;;12.87;8.47;;;5.00;99.90;;;;;;6248874;28;20474;-63
2022/01/03 07:09:24;;;;;;;12.30;8.53;;;5.00;99.90;;;;;;6249562;28;20971;-61
2022/01/03 07:12:27;;;;;;;9.17;7.90;;;5.00;99.90;;;;;;6273551;28;20470;-61
2022/01/03 07:18:57;;;;;;;11.23;8.57;;;5.20;99.90;;;;;;6273728;28;21183;-63
2022/01/03 07:22:03;;;;;;;7.97;7.17;;;5.30;99.90;;;;;;6274765;28;20539;-63
2022/01/03 07:25:08;;;;;;;13.20;8.30;;;5.40;99.90;;;;;;6273822;28;20478;-63
2022/01/03 07:28:12;;;;;;;8.77;7.87;;;5.40;99.90;;;;;;6273979;28;20799;-62
2022/01/03 07:31:16;;;;;;;13.27;8.33;;;5.60;99.90;;;;;;6274127;28;20470;-63
2022/01/03 07:34:19;;;;;;;13.20;8.50;;;5.70;99.90;;;;;;6277236;28;20484;-63
2022/01/03 07:37:22;;;;;;;10.57;8.17;;;5.80;99.90;;;;;;6278913;28;20476;-63
2022/01/03 07:40:26;;;;;;;13.33;8.30;;;5.80;99.90;;;;;;6278500;28;20480;-63
2022/01/03 07:43:30;;;;;;;9.90;8.70;;;5.90;99.90;;;;;;6277693;28;20535;-63
2022/01/03 07:46:33;;;;;;;15.07;9.00;;;6.00;99.90;;;;;;6276812;28;20481;-63
2022/01/03 07:49:36;;;;;;;10.80;9.17;;;6.10;99.90;;;;;;6277362;28;20478;-63
2022/01/03 07:52:39;;;;;;;11.47;8.07;;;5.90;99.90;;;;;;6277040;28;20932;-63
2022/01/03 07:55:44;;;;;;;11.93;8.07;;;5.90;99.90;;;;;;6277064;28;20473;-63
2022/01/03 07:58:48;;;;;;;12.20;10.50;;;6.10;99.90;;;;;;6277964;28;20446;-63
2022/01/03 08:01:51;;;;;;;11.70;8.90;;;6.20;99.90;;;;;;6278106;28;20556;-63
2022/01/03 08:04:55;;;;;;;10.90;8.00;;;6.30;99.90;;;;;;6257750;28;20471;-63
2022/01/03 08:07:58;;;;;;;11.30;8.50;;;6.50;99.90;;;;;;6253228;28;20478;-63
2022/01/03 08:11:02;;;;;;;10.03;8.43;;;6.50;99.90;;;;;;6268266;28;20466;-63
2022/01/03 08:14:05;;;;;;;13.93;8.27;;;6.70;99.90;;;;;;6278326;28;20466;-63
2022/01/03 08:17:09;;;;;;;12.63;9.50;;;6.80;99.90;;;;;;6278434;28;20466;-63
2022/01/03 08:20:12;;;;;;;8.90;8.00;;;6.90;99.90;;;;;;6278045;28;20965;-63
2022/01/03 08:23:16;;;;;;;10.40;8.90;;;6.70;99.90;;;;;;6277733;28;20470;-63
2022/01/03 08:26:20;;;;;;;13.70;8.90;;;6.70;99.90;;;;;;6277411;28;20474;-63
2022/01/03 08:29:24;;;;;;;10.17;9.10;;;6.70;99.90;;;;;;6277929;28;20549;-63
2022/01/03 08:32:27;;;;;;;12.50;8.43;;;6.70;99.90;;;;;;6277310;28;20978;-63
2022/01/03 08:35:32;;;;;;;12.17;8.33;;;6.80;99.90;;;;;;6277363;28;20972;-63
2022/01/03 08:38:35;;;;;;;12.90;8.60;;;6.80;99.90;;;;;;6277830;28;20466;-63
2022/01/03 08:41:39;;;;;;;9.40;7.77;;;7.00;99.90;;;;;;6277244;28;20465;-63
2022/01/03 08:44:42;;;;;;;11.67;7.93;;;7.10;99.90;;;;;;6276940;28;20489;-63
2022/01/03 08:47:46;;;;;;;10.23;7.30;;;7.20;99.90;;;;;;6276700;28;20950;-63
2022/01/03 08:50:50;;;;;;;9.13;7.43;;;7.30;99.90;;;;;;6272796;28;20474;-63
2022/01/03 08:53:53;;;;;;;7.77;6.97;;;7.40;99.90;;;;;;6277269;28;20470;-63
2022/01/03 08:56:58;;;;;;;8.47;6.67;;;7.60;99.90;;;;;;6277723;28;20493;-63
2022/01/03 09:00:01;;;;;;;7.70;6.33;;;7.60;99.90;;;;;;6277867;28;20485;-62
2022/01/03 09:03:04;;;;;;;6.70;6.00;;;7.50;99.90;;;;;;6271769;28;20981;-63
2022/01/03 09:06:07;;;;;;;7.97;7.17;;;7.60;99.90;;;;;;6252502;28;20968;-63
2022/01/03 09:09:10;;;;;;;9.73;6.00;;;7.80;99.90;;;;;;6253019;28;20490;-63
2022/01/03 09:12:15;;;;;;;5.87;4.90;;;8.00;99.10;;;;;;6281468;28;20469;-63
2022/01/03 09:15:18;;;;;;;8.43;6.47;;;8.10;98.60;;;;;;6281432;28;20482;-63
2022/01/03 09:18:24;;;;;;;6.87;5.30;;;8.30;98.10;;;;;;6277723;28;20512;-64
2022/01/03 09:21:28;;;;;;;6.30;5.53;;;8.50;97.80;;;;;;6276848;28;20484;-64
2022/01/03 09:24:45;;;;;;;6.83;5.83;;;8.70;96.80;;;;;;6277091;28;20482;-64
2022/01/03 09:31:12;;;;;;;5.90;5.10;;;8.90;95.70;;;;;;6276718;28;20489;-64
2022/01/03 09:34:15;;;;;;;6.60;4.70;;;9.00;95.90;;;;;;6276113;28;21021;-64
2022/01/03 09:37:20;;;;;;;5.57;4.60;;;9.30;96.00;;;;;;6252130;28;20794;-64
2022/01/03 09:40:23;;;;;;;6.77;4.73;;;9.50;95.20;;;;;;6249463;28;20510;-64
2022/01/03 09:43:29;;;;;;;5.17;4.50;;;9.60;94.30;;;;;;6246866;28;20494;-63
2022/01/03 09:46:35;;;;;;;5.60;5.00;;;9.80;94.40;;;;;;6246523;28;20474;-64
2022/01/03 09:49:40;;;;;;;5.07;4.57;;;10.00;93.00;;;;;;6249057;28;20568;-63
2022/01/03 09:52:47;;;;;;;8.93;5.90;;;9.90;93.10;;;;;;6250267;28;20453;-63
2022/01/03 09:55:50;;;;;;;5.40;4.90;;;9.80;93.50;;;;;;6249034;28;20471;-64
2022/01/03 09:58:55;;;;;;;9.43;5.77;;;9.90;93.40;;;;;;6234034;28;20464;-65
2022/01/03 10:02:00;;;;;;;7.10;5.20;;;9.90;93.40;;;;;;6249003;28;20463;-64
2022/01/03 10:05:05;;;;;;;5.80;4.80;;;10.10;92.90;;;;;;6247519;28;20469;-63
2022/01/03 10:08:08;;;;;;;5.40;4.90;;;10.00;92.20;;;;;;6246157;28;20482;-63
2022/01/03 10:11:12;;;;;;;9.87;6.00;;;10.10;92.60;;;;;;6248410;28;20974;-63
2022/01/03 10:14:16;;;;;;;7.70;6.33;;;10.20;92.80;;;;;;6246774;28;20486;-62
2022/01/03 10:17:19;;;;;;;6.17;5.63;;;10.40;92.70;;;;;;6226891;28;20553;-63
2022/01/03 10:20:23;;;;;;;6.63;5.90;;;10.60;92.50;;;;;;6249058;28;20570;-62
2022/01/03 10:23:26;;;;;;;7.37;6.57;;;10.80;92.30;;;;;;6248963;28;20471;-62
2022/01/03 10:26:29;;;;;;;7.00;5.77;;;10.90;92.10;;;;;;6248849;28;20489;-62
2022/01/03 10:29:34;;;;;;;9.13;5.97;;;11.30;92.00;;;;;;6248895;28;20559;-63
2022/01/03 10:32:38;;;;;;;11.17;5.87;;;11.70;91.20;;;;;;6248931;28;20481;-62
2022/01/03 10:35:43;;;;;;;7.90;5.70;;;12.00;90.70;;;;;;6248587;28;20490;-64
2022/01/03 10:38:49;;;;;;;7.63;6.60;;;12.20;89.50;;;;;;6248588;28;20481;-63
2022/01/03 10:41:54;;;;;;;8.60;7.70;;;12.20;88.60;;;;;;6249152;28;20486;-62
2022/01/03 10:45:01;;;;;;;9.57;6.93;;;12.20;87.90;;;;;;6246542;28;20975;-62
2022/01/03 10:48:04;;;;;;;7.97;7.10;;;12.00;88.40;;;;;;6247961;28;20486;-63
2022/01/03 10:51:07;;;;;;;10.43;6.20;;;11.90;88.30;;;;;;6224573;28;20479;-63
2022/01/03 10:54:13;;;;;;;15.30;6.27;;;12.00;88.20;;;;;;6241992;28;20493;-62
2022/01/03 10:57:16;;;;;;;12.00;6.13;;;12.00;88.10;;;;;;6248474;28;20525;-62
2022/01/03 11:00:24;;;;;;;11.77;8.80;;;12.10;87.60;;;;;;6251121;28;20485;-64
2022/01/03 11:03:31;;;;;;;14.70;9.17;;;12.20;87.20;;;;;;6250377;28;20493;-63
2022/01/03 11:06:50;;;;;;;15.43;10.47;;;12.30;87.30;;;;;;6248359;28;20482;-62
2022/01/03 11:13:26;;;;;;;15.63;10.57;;;12.60;86.50;;;;;;6277604;28;20484;-64
2022/01/03 11:16:34;;;;;;;8.67;6.90;;;12.90;85.90;;;;;;6264308;28;20828;-64
2022/01/03 11:19:38;;;;;;;10.30;7.00;;;13.40;83.10;;;;;;6252866;28;20455;-65
2022/01/03 11:22:43;;;;;;;7.37;5.70;;;14.30;81.10;;;;;;6253457;28;20444;-65
2022/01/03 11:25:47;;;;;;;6.63;4.93;;;17.60;69.90;;;;;;6252568;28;20459;-66
2022/01/03 11:28:50;;;;;;;6.77;6.07;;;20.30;57.70;;;;;;6252033;28;20446;-63
2022/01/03 11:31:56;;;;;;;6.70;5.83;;;20.30;52.20;;;;;;6252506;28;20478;-63
2022/01/03 11:35:01;;;;;;;6.30;5.70;;;19.60;52.80;;;;;;6251553;28;20243;-63
2022/01/03 11:38:07;;;;;;;5.13;4.67;;;19.10;53.20;;;;;;6250324;28;20763;-63
2022/01/03 11:41:11;;;;;;;5.20;4.80;;;20.20;51.60;;;;;;6250943;28;20232;-63
2022/01/03 11:44:16;;;;;;;9.80;6.07;;;22.90;46.90;;;;;;6250890;28;20280;-64
2022/01/03 11:47:21;;;;;;;6.67;6.10;;;25.70;42.60;;;;;;6251905;28;20228;-65
2022/01/03 11:50:24;;;;;;;6.63;5.97;;;27.50;35.90;;;;;;6235626;28;20244;-65
2022/01/03 11:53:27;;;;;;;8.60;6.70;;;29.40;31.40;;;;;;6229361;28;20730;-65
2022/01/03 11:56:32;;;;;;;7.30;5.60;;;31.30;29.30;;;;;;6252824;28;20238;-65
2022/01/03 12:03:36;;;;;;;8.43;6.78;;;32.80;27.60;;;;;;6252405;28;20808;-65
2022/01/03 12:06:35;;;;;;;6.97;5.65;;;34.50;23.80;;;;;;6253211;28;20365;-65
2022/01/03 12:09:39;;;;;;;6.23;5.63;;;32.10;24.80;;;;;;6256508;28;20248;-65
2022/01/03 12:12:43;;;;;;;7.27;5.73;;;29.40;26.70;;;;;;6277432;28;20293;-65
2022/01/03 12:15:46;;;;;;;8.53;5.50;;;29.40;27.90;;;;;;6277724;28;20321;-65
2022/01/03 12:19:02;;;;;;;9.20;5.43;;;30.80;26.30;;;;;;6277570;28;20257;-65
2022/01/03 12:22:12;;;;;;;5.50;5.00;;;32.80;24.60;;;;;;6277015;28;20238;-64
2022/01/03 12:25:25;;;;;;;6.23;4.40;;;31.00;24.50;;;;;;6277454;28;20241;-65
2022/01/03 12:28:28;;;;;;;5.30;4.80;;;28.80;26.10;;;;;;6276354;28;20232;-63
2022/01/03 12:32:03;;;;;;;8.73;4.63;;;27.00;28.10;;;;;;6276317;28;20235;-65
2022/01/03 12:35:25;;;;;;;4.83;4.43;;;26.20;29.10;;;;;;6266010;28;20238;-65
2022/01/03 12:38:33;;;;;;;4.87;4.37;;;28.10;28.00;;;;;;6276153;28;20565;-65
2022/01/03 12:41:41;;;;;;;5.57;4.10;;;30.60;26.10;;;;;;6268835;28;20237;-64
2022/01/03 12:44:47;;;;;;;5.57;4.63;;;33.30;24.50;;;;;;6250567;28;20242;-63
2022/01/03 12:47:50;;;;;;;5.07;4.57;;;35.70;22.70;;;;;;6250960;28;20243;-64
2022/01/03 12:51:14;;;;;;;5.05;4.55;;;36.30;21.20;;;;;;6229743;28;20321;-64
2022/01/03 12:54:39;;;;;;;4.80;3.25;;;35.50;20.70;;;;;;6232815;28;20687;-65
2022/01/03 12:57:42;;;;;;;5.55;4.00;;;36.20;20.30;;;;;;6251478;28;20234;-64
2022/01/03 13:00:49;;;;;;;4.15;3.25;;;36.20;19.80;;;;;;6251676;28;20598;-66
2022/01/03 13:03:53;;;;;;;4.45;3.17;;;34.50;21.00;;;;;;6252105;28;20258;-64
2022/01/03 13:07:04;;;;;;;2.20;1.70;;;32.50;21.60;;;;;;6253571;28;20231;-64
2022/01/03 13:10:08;;;;;;;11.33;3.00;;;29.60;22.50;;;;;;6259407;28;20565;-64
2022/01/03 13:13:27;;;;;;;4.47;3.60;;;27.70;24.70;;;;;;6275279;28;20235;-65
2022/01/03 13:16:32;;;;;;;4.90;2.73;;;26.10;26.30;;;;;;6275605;28;20244;-64
2022/01/03 13:19:37;;;;;;;5.10;3.13;;;24.70;28.20;;;;;;6276440;28;20239;-64
2022/01/03 13:22:42;;;;;;;7.23;3.43;;;23.60;29.20;;;;;;6275431;28;20208;-64
2022/01/03 13:25:45;;;;;;;4.40;3.00;;;23.10;30.20;;;;;;6276051;28;20251;-64
2022/01/03 13:28:49;;;;;;;4.60;2.27;;;22.90;30.60;;;;;;6275713;28;20207;-64
2022/01/03 13:31:53;;;;;;;4.63;3.37;;;22.90;30.20;;;;;;6274889;28;20223;-64
2022/01/03 13:34:59;;;;;;;6.63;4.00;;;24.10;29.70;;;;;;6275346;28;20231;-64
2022/01/03 13:38:17;;;;;;;8.50;3.70;;;23.60;29.70;;;;;;6274512;28;20553;-64
2022/01/03 13:41:21;;;;;;;3.40;3.03;;;25.20;29.30;;;;;;6269920;28;20220;-64
2022/01/03 13:45:01;;;;;;;5.80;3.40;;;26.70;28.20;;;;;;6250624;28;20227;-64
2022/01/03 13:51:28;;;;;;;9.27;6.70;;;28.40;25.00;;;;;;6225768;28;20232;-64
2022/01/03 13:54:35;;;;;;;4.90;3.70;;;26.50;26.70;;;;;;6232694;28;20683;-64
2022/01/03 13:57:38;;;;;;;6.43;3.77;;;26.60;26.60;;;;;;6250254;28;20235;-64
2022/01/03 14:00:44;;;;;;;5.27;3.40;;;26.60;27.00;;;;;;6249814;28;20267;-65
2022/01/03 14:03:48;;;;;;;5.43;3.60;;;25.80;27.10;;;;;;6249650;28;20323;-64
2022/01/03 14:07:05;;;;;;;4.53;3.30;;;24.30;28.50;;;;;;6249308;28;20266;-66
2022/01/03 14:10:10;;;;;;;5.33;3.43;;;22.60;30.30;;;;;;6256553;28;20251;-66
2022/01/03 14:13:14;;;;;;;7.47;3.70;;;21.60;32.80;;;;;;6273834;28;20242;-66
2022/01/03 14:16:55;;;;;;;6.60;4.20;;;20.40;35.00;;;;;;6273849;28;20289;-66
2022/01/03 14:20:04;;;;;;;4.10;2.50;;;19.50;36.70;;;;;;6274490;28;20223;-65
2022/01/03 14:23:16;;;;;;;5.73;3.40;;;18.60;38.50;;;;;;6275068;28;20298;-65
2022/01/03 14:26:22;;;;;;;5.37;3.80;;;18.20;39.70;;;;;;6274271;28;20954;-64
2022/01/03 14:29:38;;;;;;;4.50;3.70;;;17.70;40.90;;;;;;6261153;28;20494;-64
2022/01/03 14:32:43;;;;;;;5.47;3.10;;;17.20;42.30;;;;;;6249348;28;20490;-64
2022/01/03 14:35:46;;;;;;;4.10;3.67;;;16.80;43.10;;;;;;6249612;28;20475;-65
2022/01/03 14:38:59;;;;;;;5.47;3.90;;;16.50;43.80;;;;;;6250996;28;20467;-64
2022/01/03 14:42:06;;;;;;;7.23;4.27;;;16.20;44.50;;;;;;6250552;28;20490;-64
2022/01/03 14:45:16;;;;;;;7.10;3.63;;;15.90;45.10;;;;;;6249401;28;20987;-64
2022/01/03 14:48:21;;;;;;;8.50;4.20;;;15.80;45.80;;;;;;6225503;28;20802;-64
2022/01/03 14:51:34;;;;;;;11.27;4.70;;;15.60;46.80;;;;;;6248506;28;20974;-64
2022/01/03 14:54:37;;;;;;;7.27;4.90;;;15.40;47.70;;;;;;6248253;28;20486;-64
2022/01/03 14:57:46;;;;;;;7.37;4.63;;;15.20;47.80;;;;;;6248250;28;20490;-64
2022/01/03 15:00:50;;;;;;;6.70;5.30;;;15.10;48.40;;;;;;6247955;28;20510;-64
2022/01/03 15:03:53;;;;;;;7.40;4.40;;;14.80;49.40;;;;;;6248659;28;20719;-64
2022/01/03 15:06:56;;;;;;;5.43;4.90;;;14.50;50.30;;;;;;6249317;28;20528;-65
2022/01/03 15:09:59;;;;;;;7.70;5.60;;;14.30;50.90;;;;;;6256928;28;20466;-65
2022/01/03 15:13:24;;;;;;;6.30;5.07;;;14.20;51.50;;;;;;6273192;28;20628;-63
2022/01/03 15:16:27;;;;;;;6.60;5.50;;;14.00;52.20;;;;;;6272667;28;20478;-64
2022/01/03 15:19:31;;;;;;;7.70;4.80;;;13.90;53.10;;;;;;6272417;28;20474;-65
2022/01/03 15:22:35;;;;;;;5.93;4.53;;;13.80;53.00;;;;;;6272301;28;20453;-65
2022/01/03 15:25:38;;;;;;;9.60;6.53;;;13.70;53.50;;;;;;6273481;28;20458;-64
2022/01/03 15:28:43;;;;;;;14.30;10.37;;;13.60;54.00;;;;;;6269537;28;20918;-65
2022/01/03 15:31:47;;;;;;;10.43;8.97;;;13.30;54.30;;;;;;6249229;28;20497;-65
2022/01/03 15:34:50;;;;;;;9.37;7.30;;;13.10;55.20;;;;;;6248580;28;20536;-65
2022/01/03 15:37:54;;;;;;;11.80;5.30;;;13.10;56.10;;;;;;6249407;28;20435;-66
2022/01/03 15:40:57;;;;;;;9.17;5.63;;;13.00;56.90;;;;;;6248721;28;20463;-66
2022/01/03 15:44:04;;;;;;;8.20;6.50;;;12.80;57.00;;;;;;6248932;28;20471;-65
2022/01/03 15:47:08;;;;;;;9.70;5.20;;;12.70;57.70;;;;;;6248708;28;20596;-65
2022/01/03 15:50:11;;;;;;;7.03;5.97;;;12.60;58.20;;;;;;6248348;28;20812;-66
2022/01/03 15:53:15;;;;;;;9.13;5.40;;;12.50;58.20;;;;;;6248713;28;20470;-63
2022/01/03 15:56:18;;;;;;;10.63;5.80;;;12.40;59.00;;;;;;6253419;28;20491;-64
2022/01/03 15:59:22;;;;;;;10.67;6.43;;;12.30;59.30;;;;;;6253786;28;20478;-64
2022/01/03 16:02:26;;;;;;;11.37;5.60;;;12.20;59.60;;;;;;6253475;28;20470;-64
2022/01/03 16:05:30;;;;;;;9.37;6.50;;;12.20;60.20;;;;;;6251905;28;20482;-64
2022/01/03 16:08:33;;;;;;;7.97;5.70;;;12.20;60.80;;;;;;6250504;28;20553;-64
2022/01/03 16:11:39;;;;;;;8.17;6.87;;;12.10;61.20;;;;;;6250824;28;20474;-64
2022/01/03 16:14:44;;;;;;;10.63;6.50;;;12.00;61.90;;;;;;6249564;28;20505;-64
2022/01/03 16:17:47;;;;;;;10.13;6.20;;;12.00;62.60;;;;;;6248181;28;20470;-64
2022/01/03 16:20:50;;;;;;;10.10;7.03;;;11.90;63.10;;;;;;6251030;28;20974;-65
2022/01/03 16:23:53;;;;;;;10.73;7.00;;;11.80;63.80;;;;;;6252560;28;20971;-64
2022/01/03 16:26:56;;;;;;;10.60;7.13;;;11.80;64.80;;;;;;6250285;28;20966;-65
2022/01/03 16:30:01;;;;;;;11.77;7.53;;;11.70;65.30;;;;;;6251744;28;20467;-65
2022/01/03 16:33:04;;;;;;;12.00;5.73;;;11.70;65.50;;;;;;6250116;28;20483;-65